sensor_id;sensor_type;location;lat;lon;timestamp;temperature;humidity
43671;DHT22;29267;50.906;7.248;2023-07-20T00:00:49;15.80;99.90
43671;DHT22;29267;50.906;7.248;2023-07-20T00:03:19;15.70;99.90
43671;DHT22;29267;50.906;7.248;2023-07-20T00:05:48;15.70;99.90
43671;DHT22;29267;50.906;7.248;2023-07-20T00:08:14;15.70;99.90
43671;DHT22;29267;50.906;7.248;2023-07-20T00:10:40;15.70;99.90
43671;DHT22;29267;50.906;7.248;2023-07-20T00:13:06;15.70;99.90
43671;DHT22;29267;50.906;7.248;2023-07-20T00:15:32;15.70;99.90
43671;DHT22;29267;50.906;7.248;2023-07-20T00:17:58;15.60;99.90
43671;DHT22;29267;50.906;7.248;2023-07-20T00:20:24;15.60;99.90
43671;DHT22;29267;50.906;7.248;2023-07-20T00:22:51;15.70;99.90
43671;DHT22;29267;50.906;7.248;2023-07-20T00:25:17;15.70;99.90
43671;DHT22;29267;50.906;7.248;2023-07-20T00:27:43;15.80;99.90
43671;DHT22;29267;50.906;7.248;2023-07-20T00:30:09;15.90;99.90
43671;DHT22;29267;50.906;7.248;2023-07-20T00:32:34;16.00;99.90
43671;DHT22;29267;50.906;7.248;2023-07-20T00:35:00;16.00;99.90
43671;DHT22;29267;50.906;7.248;2023-07-20T00:37:25;16.10;99.90
43671;DHT22;29267;50.906;7.248;2023-07-20T00:39:52;16.20;99.90
43671;DHT22;29267;50.906;7.248;2023-07-20T00:42:18;16.20;99.90
43671;DHT22;29267;50.906;7.248;2023-07-20T00:44:44;16.30;99.90
43671;DHT22;29267;50.906;7.248;2023-07-20T00:47:09;16.40;99.90
43671;DHT22;29267;50.906;7.248;2023-07-20T00:49:35;16.40;99.90
43671;DHT22;29267;50.906;7.248;2023-07-20T00:52:01;16.50;99.90
43671;DHT22;29267;50.906;7.248;2023-07-20T00:54:28;16.50;99.90
43671;DHT22;29267;50.906;7.248;2023-07-20T00:56:55;16.50;99.90
43671;DHT22;29267;50.906;7.248;2023-07-20T00:59:21;16.60;99.90
43671;DHT22;29267;50.906;7.248;2023-07-20T01:01:47;16.60;99.90
43671;DHT22;29267;50.906;7.248;2023-07-20T01:04:13;16.60;99.90
43671;DHT22;29267;50.906;7.248;2023-07-20T01:09:14;16.60;99.90
43671;DHT22;29267;50.906;7.248;2023-07-20T01:12:05;16.60;99.90
43671;DHT22;29267;50.906;7.248;2023-07-20T01:14:29;16.60;99.90
43671;DHT22;29267;50.906;7.248;2023-07-20T01:16:55;16.70;99.90
43671;DHT22;29267;50.906;7.248;2023-07-20T01:19:20;16.70;99.90
43671;DHT22;29267;50.906;7.248;2023-07-20T01:22:02;16.70;99.90
43671;DHT22;29267;50.906;7.248;2023-07-20T01:27:38;16.50;99.90
43671;DHT22;29267;50.906;7.248;2023-07-20T01:30:31;16.50;99.90
43671;DHT22;29267;50.906;7.248;2023-07-20T01:33:00;16.40;99.90
43671;DHT22;29267;50.906;7.248;2023-07-20T01:35:29;16.40;99.90
43671;DHT22;29267;50.906;7.248;2023-07-20T01:37:56;16.30;99.90
43671;DHT22;29267;50.906;7.248;2023-07-20T01:40:23;16.20;99.90
43671;DHT22;29267;50.906;7.248;2023-07-20T01:42:51;16.20;99.90
43671;DHT22;29267;50.906;7.248;2023-07-20T01:45:17;16.20;99.90
43671;DHT22;29267;50.906;7.248;2023-07-20T01:47:43;16.20;99.90
43671;DHT22;29267;50.906;7.248;2023-07-20T01:50:09;16.20;99.90
43671;DHT22;29267;50.906;7.248;2023-07-20T01:52:35;16.20;99.90
43671;DHT22;29267;50.906;7.248;2023-07-20T01:55:00;16.20;99.90
43671;DHT22;29267;50.906;7.248;2023-07-20T01:57:26;16.20;99.90
43671;DHT22;29267;50.906;7.248;2023-07-20T01:59:51;16.30;99.90
43671;DHT22;29267;50.906;7.248;2023-07-20T02:02:17;16.30;99.90
43671;DHT22;29267;50.906;7.248;2023-07-20T02:04:43;16.30;99.90
43671;DHT22;29267;50.906;7.248;2023-07-20T02:07:09;16.30;99.90
43671;DHT22;29267;50.906;7.248;2023-07-20T02:09:34;16.30;99.90
43671;DHT22;29267;50.906;7.248;2023-07-20T02:12:00;16.30;99.90
43671;DHT22;29267;50.906;7.248;2023-07-20T02:14:25;16.30;99.90
43671;DHT22;29267;50.906;7.248;2023-07-20T02:16:51;16.30;99.90
43671;DHT22;29267;50.906;7.248;2023-07-20T02:19:18;16.30;99.90
43671;DHT22;29267;50.906;7.248;2023-07-20T02:21:43;16.30;99.90
43671;DHT22;29267;50.906;7.248;2023-07-20T02:24:09;16.20;99.90
43671;DHT22;29267;50.906;7.248;2023-07-20T02:26:35;16.20;99.90
43671;DHT22;29267;50.906;7.248;2023-07-20T02:29:00;16.20;99.90
43671;DHT22;29267;50.906;7.248;2023-07-20T02:31:26;16.20;99.90
43671;DHT22;29267;50.906;7.248;2023-07-20T02:33:51;16.20;99.90
43671;DHT22;29267;50.906;7.248;2023-07-20T02:36:17;16.10;99.90
43671;DHT22;29267;50.906;7.248;2023-07-20T02:38:43;16.10;99.90
43671;DHT22;29267;50.906;7.248;2023-07-20T02:41:08;16.10;99.90
43671;DHT22;29267;50.906;7.248;2023-07-20T02:43:34;16.10;99.90
43671;DHT22;29267;50.906;7.248;2023-07-20T02:45:59;16.10;99.90
43671;DHT22;29267;50.906;7.248;2023-07-20T02:48:25;16.10;99.90
43671;DHT22;29267;50.906;7.248;2023-07-20T02:50:50;16.10;99.90
43671;DHT22;29267;50.906;7.248;2023-07-20T02:53:16;16.10;99.90
43671;DHT22;29267;50.906;7.248;2023-07-20T02:55:41;16.00;99.90
43671;DHT22;29267;50.906;7.248;2023-07-20T02:58:07;15.90;99.90
43671;DHT22;29267;50.906;7.248;2023-07-20T03:00:33;15.80;99.90
43671;DHT22;29267;50.906;7.248;2023-07-20T03:02:58;15.60;99.90
43671;DHT22;29267;50.906;7.248;2023-07-20T03:05:24;15.50;99.90
43671;DHT22;29267;50.906;7.248;2023-07-20T03:07:53;15.40;99.90
43671;DHT22;29267;50.906;7.248;2023-07-20T03:10:19;15.40;99.90
43671;DHT22;29267;50.906;7.248;2023-07-20T03:12:44;15.30;99.90
43671;DHT22;29267;50.906;7.248;2023-07-20T03:15:10;15.20;99.90
43671;DHT22;29267;50.906;7.248;2023-07-20T03:17:36;15.20;99.90
43671;DHT22;29267;50.906;7.248;2023-07-20T03:20:02;15.20;99.90
43671;DHT22;29267;50.906;7.248;2023-07-20T03:22:28;15.20;99.90
43671;DHT22;29267;50.906;7.248;2023-07-20T03:24:53;15.30;99.90
43671;DHT22;29267;50.906;7.248;2023-07-20T03:27:19;15.30;99.90
43671;DHT22;29267;50.906;7.248;2023-07-20T03:29:45;15.40;99.90
43671;DHT22;29267;50.906;7.248;2023-07-20T03:32:10;15.40;99.90
43671;DHT22;29267;50.906;7.248;2023-07-20T03:34:36;15.40;99.90
43671;DHT22;29267;50.906;7.248;2023-07-20T03:37:02;15.40;99.90
43671;DHT22;29267;50.906;7.248;2023-07-20T03:39:30;15.40;99.90
43671;DHT22;29267;50.906;7.248;2023-07-20T03:41:57;15.40;99.90
43671;DHT22;29267;50.906;7.248;2023-07-20T03:44:22;15.50;99.90
43671;DHT22;29267;50.906;7.248;2023-07-20T03:46:48;15.50;99.90
43671;DHT22;29267;50.906;7.248;2023-07-20T03:49:13;15.50;99.90
43671;DHT22;29267;50.906;7.248;2023-07-20T03:51:39;15.60;99.90
43671;DHT22;29267;50.906;7.248;2023-07-20T03:54:04;15.60;99.90
43671;DHT22;29267;50.906;7.248;2023-07-20T03:56:30;15.60;99.90
43671;DHT22;29267;50.906;7.248;2023-07-20T03:58:59;15.60;99.90
43671;DHT22;29267;50.906;7.248;2023-07-20T04:01:25;15.60;99.90
43671;DHT22;29267;50.906;7.248;2023-07-20T04:03:50;15.60;99.90
43671;DHT22;29267;50.906;7.248;2023-07-20T04:06:16;15.60;99.90
43671;DHT22;29267;50.906;7.248;2023-07-20T04:08:43;15.70;99.90
43671;DHT22;29267;50.906;7.248;2023-07-20T04:11:08;15.80;99.90
43671;DHT22;29267;50.906;7.248;2023-07-20T04:13:34;15.80;99.90
43671;DHT22;29267;50.906;7.248;2023-07-20T04:16:00;15.90;99.90
43671;DHT22;29267;50.906;7.248;2023-07-20T04:18:25;16.00;99.90
43671;DHT22;29267;50.906;7.248;2023-07-20T04:20:51;16.10;99.90
43671;DHT22;29267;50.906;7.248;2023-07-20T04:23:16;16.10;99.90
43671;DHT22;29267;50.906;7.248;2023-07-20T04:25:42;16.20;99.90
43671;DHT22;29267;50.906;7.248;2023-07-20T04:28:08;16.30;99.90
43671;DHT22;29267;50.906;7.248;2023-07-20T04:30:37;16.40;99.90
43671;DHT22;29267;50.906;7.248;2023-07-20T04:33:05;16.50;99.90
43671;DHT22;29267;50.906;7.248;2023-07-20T04:35:51;16.50;99.90
43671;DHT22;29267;50.906;7.248;2023-07-20T04:38:17;16.50;99.90
43671;DHT22;29267;50.906;7.248;2023-07-20T04:40:47;16.50;99.90
43671;DHT22;29267;50.906;7.248;2023-07-20T04:43:14;16.50;99.90
43671;DHT22;29267;50.906;7.248;2023-07-20T04:45:40;16.60;99.90
43671;DHT22;29267;50.906;7.248;2023-07-20T04:48:09;16.60;99.90
43671;DHT22;29267;50.906;7.248;2023-07-20T04:50:37;16.60;99.90
43671;DHT22;29267;50.906;7.248;2023-07-20T04:53:03;16.60;99.90
43671;DHT22;29267;50.906;7.248;2023-07-20T04:55:28;16.70;99.90
43671;DHT22;29267;50.906;7.248;2023-07-20T04:57:54;16.80;99.90
43671;DHT22;29267;50.906;7.248;2023-07-20T05:00:20;16.90;99.90
43671;DHT22;29267;50.906;7.248;2023-07-20T05:02:47;17.10;99.90
43671;DHT22;29267;50.906;7.248;2023-07-20T05:05:14;17.30;99.90
43671;DHT22;29267;50.906;7.248;2023-07-20T05:07:40;17.50;99.90
43671;DHT22;29267;50.906;7.248;2023-07-20T05:10:06;18.00;99.90
43671;DHT22;29267;50.906;7.248;2023-07-20T05:12:32;19.00;99.90
43671;DHT22;29267;50.906;7.248;2023-07-20T05:14:58;20.20;99.90
43671;DHT22;29267;50.906;7.248;2023-07-20T05:17:23;20.90;99.90
43671;DHT22;29267;50.906;7.248;2023-07-20T05:19:50;21.80;99.90
43671;DHT22;29267;50.906;7.248;2023-07-20T05:22:16;22.20;99.90
43671;DHT22;29267;50.906;7.248;2023-07-20T05:24:41;22.60;99.60
43671;DHT22;29267;50.906;7.248;2023-07-20T05:27:07;22.70;99.00
43671;DHT22;29267;50.906;7.248;2023-07-20T05:29:32;22.80;99.40
43671;DHT22;29267;50.906;7.248;2023-07-20T05:31:58;22.70;98.60
43671;DHT22;29267;50.906;7.248;2023-07-20T05:34:24;21.80;99.30
43671;DHT22;29267;50.906;7.248;2023-07-20T05:36:49;21.40;99.90
43671;DHT22;29267;50.906;7.248;2023-07-20T05:39:16;20.80;99.90
43671;DHT22;29267;50.906;7.248;2023-07-20T05:41:42;20.30;99.90
43671;DHT22;29267;50.906;7.248;2023-07-20T05:44:08;20.00;99.90
43671;DHT22;29267;50.906;7.248;2023-07-20T05:46:34;19.90;99.90
43671;DHT22;29267;50.906;7.248;2023-07-20T05:48:59;19.70;99.90
43671;DHT22;29267;50.906;7.248;2023-07-20T05:51:25;19.70;99.90
43671;DHT22;29267;50.906;7.248;2023-07-20T05:53:51;19.90;99.90
43671;DHT22;29267;50.906;7.248;2023-07-20T05:56:16;20.10;99.90
43671;DHT22;29267;50.906;7.248;2023-07-20T05:58:42;21.00;99.90
43671;DHT22;29267;50.906;7.248;2023-07-20T06:01:08;21.60;99.90
43671;DHT22;29267;50.906;7.248;2023-07-20T06:03:33;21.90;99.90
43671;DHT22;29267;50.906;7.248;2023-07-20T06:06:03;21.90;99.90
43671;DHT22;29267;50.906;7.248;2023-07-20T06:08:30;21.70;99.90
43671;DHT22;29267;50.906;7.248;2023-07-20T06:10:56;21.40;99.90
43671;DHT22;29267;50.906;7.248;2023-07-20T06:13:21;21.10;99.90
43671;DHT22;29267;50.906;7.248;2023-07-20T06:15:47;20.70;99.90
43671;DHT22;29267;50.906;7.248;2023-07-20T06:18:13;20.50;99.90
43671;DHT22;29267;50.906;7.248;2023-07-20T06:20:39;20.00;99.90
43671;DHT22;29267;50.906;7.248;2023-07-20T06:23:04;20.50;99.90
43671;DHT22;29267;50.906;7.248;2023-07-20T06:25:30;21.40;99.90
43671;DHT22;29267;50.906;7.248;2023-07-20T06:27:56;21.60;99.90
43671;DHT22;29267;50.906;7.248;2023-07-20T06:30:22;21.60;99.90
43671;DHT22;29267;50.906;7.248;2023-07-20T06:32:48;21.30;99.90
43671;DHT22;29267;50.906;7.248;2023-07-20T06:35:14;21.20;99.90
43671;DHT22;29267;50.906;7.248;2023-07-20T06:37:40;21.20;99.90
43671;DHT22;29267;50.906;7.248;2023-07-20T06:40:06;21.00;99.90
43671;DHT22;29267;50.906;7.248;2023-07-20T06:42:34;20.80;99.90
43671;DHT22;29267;50.906;7.248;2023-07-20T06:45:01;20.90;99.90
43671;DHT22;29267;50.906;7.248;2023-07-20T06:47:26;20.70;99.90
43671;DHT22;29267;50.906;7.248;2023-07-20T06:49:52;20.30;99.90
43671;DHT22;29267;50.906;7.248;2023-07-20T06:52:18;20.30;99.90
43671;DHT22;29267;50.906;7.248;2023-07-20T06:54:43;20.20;99.90
43671;DHT22;29267;50.906;7.248;2023-07-20T06:57:09;20.50;99.90
43671;DHT22;29267;50.906;7.248;2023-07-20T06:59:34;21.70;99.90
43671;DHT22;29267;50.906;7.248;2023-07-20T07:02:00;23.20;99.70
43671;DHT22;29267;50.906;7.248;2023-07-20T07:04:25;24.70;96.40
43671;DHT22;29267;50.906;7.248;2023-07-20T07:06:51;25.20;93.90
43671;DHT22;29267;50.906;7.248;2023-07-20T07:09:17;24.90;92.90
43671;DHT22;29267;50.906;7.248;2023-07-20T07:11:43;24.00;93.50
43671;DHT22;29267;50.906;7.248;2023-07-20T07:14:12;23.20;94.80
43671;DHT22;29267;50.906;7.248;2023-07-20T07:16:37;22.50;96.30
43671;DHT22;29267;50.906;7.248;2023-07-20T07:19:03;22.10;97.00
43671;DHT22;29267;50.906;7.248;2023-07-20T07:21:31;22.10;98.90
43671;DHT22;29267;50.906;7.248;2023-07-20T07:23:56;23.10;97.80
43671;DHT22;29267;50.906;7.248;2023-07-20T07:26:23;24.00;95.10
43671;DHT22;29267;50.906;7.248;2023-07-20T07:28:49;24.10;93.90
43671;DHT22;29267;50.906;7.248;2023-07-20T07:31:15;25.30;94.00
43671;DHT22;29267;50.906;7.248;2023-07-20T07:33:40;25.90;90.30
43671;DHT22;29267;50.906;7.248;2023-07-20T07:36:06;25.00;91.20
43671;DHT22;29267;50.906;7.248;2023-07-20T07:38:32;24.70;91.80
43671;DHT22;29267;50.906;7.248;2023-07-20T07:40:58;25.50;92.90
43671;DHT22;29267;50.906;7.248;2023-07-20T07:43:24;26.40;91.00
43671;DHT22;29267;50.906;7.248;2023-07-20T07:45:50;26.30;89.70
43671;DHT22;29267;50.906;7.248;2023-07-20T07:48:15;26.30;90.00
43671;DHT22;29267;50.906;7.248;2023-07-20T07:50:41;25.80;90.40
43671;DHT22;29267;50.906;7.248;2023-07-20T07:53:08;26.50;90.00
43671;DHT22;29267;50.906;7.248;2023-07-20T07:55:34;26.20;88.40
43671;DHT22;29267;50.906;7.248;2023-07-20T07:58:00;26.30;89.50
43671;DHT22;29267;50.906;7.248;2023-07-20T08:00:26;26.20;88.30
43671;DHT22;29267;50.906;7.248;2023-07-20T08:02:51;26.80;85.90
43671;DHT22;29267;50.906;7.248;2023-07-20T08:05:17;26.40;87.50
43671;DHT22;29267;50.906;7.248;2023-07-20T08:07:43;26.90;86.40
43671;DHT22;29267;50.906;7.248;2023-07-20T08:10:09;27.40;84.10
43671;DHT22;29267;50.906;7.248;2023-07-20T08:12:34;28.00;83.50
43671;DHT22;29267;50.906;7.248;2023-07-20T08:15:00;29.10;81.30
43671;DHT22;29267;50.906;7.248;2023-07-20T08:17:26;29.60;77.40
43671;DHT22;29267;50.906;7.248;2023-07-20T08:19:52;28.80;77.70
43671;DHT22;29267;50.906;7.248;2023-07-20T08:22:17;29.00;78.80
43671;DHT22;29267;50.906;7.248;2023-07-20T08:24:43;29.20;77.80
43671;DHT22;29267;50.906;7.248;2023-07-20T08:27:09;28.00;77.50
43671;DHT22;29267;50.906;7.248;2023-07-20T08:29:36;26.90;81.20
43671;DHT22;29267;50.906;7.248;2023-07-20T08:32:02;26.30;81.40
43671;DHT22;29267;50.906;7.248;2023-07-20T08:34:30;26.80;82.10
43671;DHT22;29267;50.906;7.248;2023-07-20T08:36:56;27.40;79.70
43671;DHT22;29267;50.906;7.248;2023-07-20T08:39:22;26.80;78.60
43671;DHT22;29267;50.906;7.248;2023-07-20T08:41:49;25.80;80.20
43671;DHT22;29267;50.906;7.248;2023-07-20T08:44:14;25.20;83.20
43671;DHT22;29267;50.906;7.248;2023-07-20T08:46:41;24.80;84.60
43671;DHT22;29267;50.906;7.248;2023-07-20T08:49:07;24.20;86.10
43671;DHT22;29267;50.906;7.248;2023-07-20T08:51:35;24.00;86.90
43671;DHT22;29267;50.906;7.248;2023-07-20T08:54:01;24.10;88.60
43671;DHT22;29267;50.906;7.248;2023-07-20T08:56:27;25.20;87.20
43671;DHT22;29267;50.906;7.248;2023-07-20T08:58:57;26.40;84.90
43671;DHT22;29267;50.906;7.248;2023-07-20T09:01:23;27.60;81.80
43671;DHT22;29267;50.906;7.248;2023-07-20T09:03:50;29.00;78.20
43671;DHT22;29267;50.906;7.248;2023-07-20T09:06:15;28.90;76.10
43671;DHT22;29267;50.906;7.248;2023-07-20T09:08:41;29.70;73.80
43671;DHT22;29267;50.906;7.248;2023-07-20T09:11:12;30.50;73.40
43671;DHT22;29267;50.906;7.248;2023-07-20T09:13:39;30.40;71.70
43671;DHT22;29267;50.906;7.248;2023-07-20T09:16:04;31.00;69.80
43671;DHT22;29267;50.906;7.248;2023-07-20T09:18:31;30.80;70.70
43671;DHT22;29267;50.906;7.248;2023-07-20T09:21:04;30.30;70.00
43671;DHT22;29267;50.906;7.248;2023-07-20T09:23:38;30.60;71.60
43671;DHT22;29267;50.906;7.248;2023-07-20T09:26:15;30.30;70.00
43671;DHT22;29267;50.906;7.248;2023-07-20T09:28:51;30.20;70.20
43671;DHT22;29267;50.906;7.248;2023-07-20T09:31:18;30.40;69.10
43671;DHT22;29267;50.906;7.248;2023-07-20T09:33:45;30.40;68.50
43671;DHT22;29267;50.906;7.248;2023-07-20T09:36:11;30.20;69.30
43671;DHT22;29267;50.906;7.248;2023-07-20T09:38:42;29.80;69.80
43671;DHT22;29267;50.906;7.248;2023-07-20T09:41:15;28.90;72.00
43671;DHT22;29267;50.906;7.248;2023-07-20T09:43:41;28.10;71.60
43671;DHT22;29267;50.906;7.248;2023-07-20T09:46:07;28.40;68.90
43671;DHT22;29267;50.906;7.248;2023-07-20T09:48:32;28.30;68.40
43671;DHT22;29267;50.906;7.248;2023-07-20T09:50:58;28.50;69.80
43671;DHT22;29267;50.906;7.248;2023-07-20T09:53:25;29.60;69.20
43671;DHT22;29267;50.906;7.248;2023-07-20T09:55:52;29.50;65.50
43671;DHT22;29267;50.906;7.248;2023-07-20T09:58:19;29.00;68.10
43671;DHT22;29267;50.906;7.248;2023-07-20T10:00:46;27.70;68.50
43671;DHT22;29267;50.906;7.248;2023-07-20T10:03:20;27.20;70.90
43671;DHT22;29267;50.906;7.248;2023-07-20T10:05:59;27.40;71.30
43671;DHT22;29267;50.906;7.248;2023-07-20T10:08:26;28.00;71.90
43671;DHT22;29267;50.906;7.248;2023-07-20T10:10:53;27.40;70.20
43671;DHT22;29267;50.906;7.248;2023-07-20T10:13:26;27.50;71.40
43671;DHT22;29267;50.906;7.248;2023-07-20T10:16:03;27.90;72.50
43671;DHT22;29267;50.906;7.248;2023-07-20T10:18:50;28.50;69.50
43671;DHT22;29267;50.906;7.248;2023-07-20T10:21:17;27.80;69.70
43671;DHT22;29267;50.906;7.248;2023-07-20T10:23:45;27.20;72.50
43671;DHT22;29267;50.906;7.248;2023-07-20T10:26:11;26.90;72.00
43671;DHT22;29267;50.906;7.248;2023-07-20T10:28:38;26.40;72.60
43671;DHT22;29267;50.906;7.248;2023-07-20T10:31:07;25.90;75.00
43671;DHT22;29267;50.906;7.248;2023-07-20T10:33:34;25.90;74.70
43671;DHT22;29267;50.906;7.248;2023-07-20T10:36:04;25.40;75.40
43671;DHT22;29267;50.906;7.248;2023-07-20T10:38:51;25.30;75.30
43671;DHT22;29267;50.906;7.248;2023-07-20T10:41:40;25.10;77.30
43671;DHT22;29267;50.906;7.248;2023-07-20T10:44:09;24.60;77.30
43671;DHT22;29267;50.906;7.248;2023-07-20T10:49:07;24.20;78.90
43671;DHT22;29267;50.906;7.248;2023-07-20T10:51:40;24.10;79.50
43671;DHT22;29267;50.906;7.248;2023-07-20T10:54:33;24.50;80.10
43671;DHT22;29267;50.906;7.248;2023-07-20T10:57:23;25.00;77.90
43671;DHT22;29267;50.906;7.248;2023-07-20T10:59:48;25.10;76.80
43671;DHT22;29267;50.906;7.248;2023-07-20T11:02:18;25.10;77.20
43671;DHT22;29267;50.906;7.248;2023-07-20T11:04:46;25.20;75.80
43671;DHT22;29267;50.906;7.248;2023-07-20T11:07:16;25.40;73.20
43671;DHT22;29267;50.906;7.248;2023-07-20T11:09:42;25.70;73.60
43671;DHT22;29267;50.906;7.248;2023-07-20T11:14:52;26.60;72.50
43671;DHT22;29267;50.906;7.248;2023-07-20T11:17:18;26.60;71.70
43671;DHT22;29267;50.906;7.248;2023-07-20T11:19:48;26.40;71.50
43671;DHT22;29267;50.906;7.248;2023-07-20T11:22:16;26.50;73.10
43671;DHT22;29267;50.906;7.248;2023-07-20T11:24:42;25.90;72.20
43671;DHT22;29267;50.906;7.248;2023-07-20T11:27:08;25.50;72.50
43671;DHT22;29267;50.906;7.248;2023-07-20T11:29:34;25.40;72.80
43671;DHT22;29267;50.906;7.248;2023-07-20T11:32:01;25.00;74.10
43671;DHT22;29267;50.906;7.248;2023-07-20T11:34:30;24.80;74.50
43671;DHT22;29267;50.906;7.248;2023-07-20T11:36:56;25.00;72.90
43671;DHT22;29267;50.906;7.248;2023-07-20T11:39:22;25.20;73.10
43671;DHT22;29267;50.906;7.248;2023-07-20T11:41:51;25.30;72.80
43671;DHT22;29267;50.906;7.248;2023-07-20T11:44:21;25.30;72.50
43671;DHT22;29267;50.906;7.248;2023-07-20T11:47:07;25.40;72.30
43671;DHT22;29267;50.906;7.248;2023-07-20T11:49:38;25.10;71.20
43671;DHT22;29267;50.906;7.248;2023-07-20T11:52:06;24.80;71.80
43671;DHT22;29267;50.906;7.248;2023-07-20T11:54:32;24.70;74.20
43671;DHT22;29267;50.906;7.248;2023-07-20T11:57:03;24.70;74.00
43671;DHT22;29267;50.906;7.248;2023-07-20T11:59:31;24.70;74.40
43671;DHT22;29267;50.906;7.248;2023-07-20T12:01:58;24.10;75.50
43671;DHT22;29267;50.906;7.248;2023-07-20T12:04:24;24.10;75.00
43671;DHT22;29267;50.906;7.248;2023-07-20T12:06:49;24.20;77.10
43671;DHT22;29267;50.906;7.248;2023-07-20T12:09:16;24.10;76.30
43671;DHT22;29267;50.906;7.248;2023-07-20T12:11:44;24.10;77.30
43671;DHT22;29267;50.906;7.248;2023-07-20T12:14:12;24.10;76.80
43671;DHT22;29267;50.906;7.248;2023-07-20T12:16:38;24.10;76.70
43671;DHT22;29267;50.906;7.248;2023-07-20T12:19:10;24.20;76.30
43671;DHT22;29267;50.906;7.248;2023-07-20T12:21:36;24.20;76.40
43671;DHT22;29267;50.906;7.248;2023-07-20T12:24:03;24.60;76.20
43671;DHT22;29267;50.906;7.248;2023-07-20T12:26:29;24.80;73.80
43671;DHT22;29267;50.906;7.248;2023-07-20T12:28:55;24.90;75.00
43671;DHT22;29267;50.906;7.248;2023-07-20T12:31:22;25.10;73.90
43671;DHT22;29267;50.906;7.248;2023-07-20T12:33:49;25.10;74.10
43671;DHT22;29267;50.906;7.248;2023-07-20T12:36:14;25.00;74.90
43671;DHT22;29267;50.906;7.248;2023-07-20T12:38:40;25.20;72.50
43671;DHT22;29267;50.906;7.248;2023-07-20T12:41:07;25.10;72.00
43671;DHT22;29267;50.906;7.248;2023-07-20T12:43:33;25.50;72.90
43671;DHT22;29267;50.906;7.248;2023-07-20T12:45:59;25.50;72.40
43671;DHT22;29267;50.906;7.248;2023-07-20T12:48:24;25.30;72.80
43671;DHT22;29267;50.906;7.248;2023-07-20T12:50:50;25.40;72.80
43671;DHT22;29267;50.906;7.248;2023-07-20T12:53:16;25.80;72.70
43671;DHT22;29267;50.906;7.248;2023-07-20T12:55:42;26.00;71.00
43671;DHT22;29267;50.906;7.248;2023-07-20T12:58:08;26.20;67.80
43671;DHT22;29267;50.906;7.248;2023-07-20T13:00:34;26.60;69.40
43671;DHT22;29267;50.906;7.248;2023-07-20T13:03:00;25.90;68.50
43671;DHT22;29267;50.906;7.248;2023-07-20T13:05:32;25.90;71.00
43671;DHT22;29267;50.906;7.248;2023-07-20T13:07:58;25.70;70.60
43671;DHT22;29267;50.906;7.248;2023-07-20T13:10:24;25.60;70.70
43671;DHT22;29267;50.906;7.248;2023-07-20T13:12:50;25.30;70.90
43671;DHT22;29267;50.906;7.248;2023-07-20T13:15:16;25.00;73.30
43671;DHT22;29267;50.906;7.248;2023-07-20T13:17:42;24.90;72.70
43671;DHT22;29267;50.906;7.248;2023-07-20T13:20:09;24.50;74.70
43671;DHT22;29267;50.906;7.248;2023-07-20T13:22:39;24.60;73.50
43671;DHT22;29267;50.906;7.248;2023-07-20T13:25:06;24.10;74.30
43671;DHT22;29267;50.906;7.248;2023-07-20T13:27:32;23.80;74.00
43671;DHT22;29267;50.906;7.248;2023-07-20T13:29:59;23.90;75.50
43671;DHT22;29267;50.906;7.248;2023-07-20T13:32:26;23.60;75.80
43671;DHT22;29267;50.906;7.248;2023-07-20T13:34:52;23.40;76.10
43671;DHT22;29267;50.906;7.248;2023-07-20T13:37:18;23.30;75.80
43671;DHT22;29267;50.906;7.248;2023-07-20T13:39:44;23.70;75.80
43671;DHT22;29267;50.906;7.248;2023-07-20T13:42:10;24.20;74.80
43671;DHT22;29267;50.906;7.248;2023-07-20T13:44:37;24.30;73.00
43671;DHT22;29267;50.906;7.248;2023-07-20T13:47:03;24.60;73.90
43671;DHT22;29267;50.906;7.248;2023-07-20T13:49:31;24.50;72.50
43671;DHT22;29267;50.906;7.248;2023-07-20T13:51:57;24.70;73.80
43671;DHT22;29267;50.906;7.248;2023-07-20T13:54:23;24.50;73.00
43671;DHT22;29267;50.906;7.248;2023-07-20T13:56:49;24.70;72.90
43671;DHT22;29267;50.906;7.248;2023-07-20T13:59:15;25.00;72.80
43671;DHT22;29267;50.906;7.248;2023-07-20T14:01:41;25.50;72.10
43671;DHT22;29267;50.906;7.248;2023-07-20T14:04:06;25.80;71.20
43671;DHT22;29267;50.906;7.248;2023-07-20T14:06:33;25.60;69.00
43671;DHT22;29267;50.906;7.248;2023-07-20T14:08:59;25.50;70.60
43671;DHT22;29267;50.906;7.248;2023-07-20T14:11:25;25.60;70.20
43671;DHT22;29267;50.906;7.248;2023-07-20T14:13:51;25.70;71.70
43671;DHT22;29267;50.906;7.248;2023-07-20T14:16:19;25.80;71.20
43671;DHT22;29267;50.906;7.248;2023-07-20T14:18:45;25.80;68.30
43671;DHT22;29267;50.906;7.248;2023-07-20T14:21:13;25.80;69.30
43671;DHT22;29267;50.906;7.248;2023-07-20T14:23:38;25.40;70.90
43671;DHT22;29267;50.906;7.248;2023-07-20T14:26:04;25.50;71.30
43671;DHT22;29267;50.906;7.248;2023-07-20T14:28:35;25.40;71.10
43671;DHT22;29267;50.906;7.248;2023-07-20T14:31:00;25.40;71.90
43671;DHT22;29267;50.906;7.248;2023-07-20T14:33:26;25.50;68.30
43671;DHT22;29267;50.906;7.248;2023-07-20T14:35:51;25.00;68.80
43671;DHT22;29267;50.906;7.248;2023-07-20T14:38:17;24.80;70.10
43671;DHT22;29267;50.906;7.248;2023-07-20T14:40:42;24.50;69.60
43671;DHT22;29267;50.906;7.248;2023-07-20T14:43:08;24.40;70.60
43671;DHT22;29267;50.906;7.248;2023-07-20T14:45:34;24.30;70.60
43671;DHT22;29267;50.906;7.248;2023-07-20T14:48:00;24.20;70.40
43671;DHT22;29267;50.906;7.248;2023-07-20T14:50:26;24.20;70.70
43671;DHT22;29267;50.906;7.248;2023-07-20T14:52:51;24.00;71.70
43671;DHT22;29267;50.906;7.248;2023-07-20T14:55:17;23.90;72.30
43671;DHT22;29267;50.906;7.248;2023-07-20T14:57:43;23.70;72.00
43671;DHT22;29267;50.906;7.248;2023-07-20T15:00:09;23.80;72.40
43671;DHT22;29267;50.906;7.248;2023-07-20T15:02:39;23.80;72.30
43671;DHT22;29267;50.906;7.248;2023-07-20T15:05:08;23.80;72.70
43671;DHT22;29267;50.906;7.248;2023-07-20T15:07:34;23.90;71.20
43671;DHT22;29267;50.906;7.248;2023-07-20T15:10:01;24.10;70.50
43671;DHT22;29267;50.906;7.248;2023-07-20T15:12:27;24.30;70.80
43671;DHT22;29267;50.906;7.248;2023-07-20T15:15:10;24.20;69.90
43671;DHT22;29267;50.906;7.248;2023-07-20T15:17:36;24.20;69.00
43671;DHT22;29267;50.906;7.248;2023-07-20T15:20:04;24.20;68.60
43671;DHT22;29267;50.906;7.248;2023-07-20T15:22:30;24.20;70.90
43671;DHT22;29267;50.906;7.248;2023-07-20T15:24:56;24.30;68.70
43671;DHT22;29267;50.906;7.248;2023-07-20T15:27:22;24.10;69.00
43671;DHT22;29267;50.906;7.248;2023-07-20T15:29:49;24.00;69.20
43671;DHT22;29267;50.906;7.248;2023-07-20T15:32:15;23.80;68.80
43671;DHT22;29267;50.906;7.248;2023-07-20T15:34:42;23.60;70.50
43671;DHT22;29267;50.906;7.248;2023-07-20T15:37:09;23.50;70.70
43671;DHT22;29267;50.906;7.248;2023-07-20T15:39:36;23.50;70.60